Squaw Point, Colorado
Current Conditions -  °F | °C
As of 11:15 AM on Monday 22 Dec 2014 (Local Time) from KBDG Reporting Station
Overcast Overcast  
Wind Chill: 38°   Ceiling: 4200
Heat Index: 41°   Visibility: 10mi
Dew Point: 39°   Wind: 5mph
Humidity: 93%   Direction: 320°NW
Pressure: 29.96"   Gusts: NA
Location:  37.74°N, 108.957°W
Report Text: KBDG 221815Z AUTO 32004KT 10SM SCT028 BKN042 OVC049 05/04 A2996 RMK AO1 T00490038
Loading
Personal Weather Stations






























Interactive Weather Map New forecast layout! Learn more

10-Day Weather Forecast

Advertisements
Track Severe Weather on mobile